createdAt,value
2019-01-11T00:01:54.795Z,82.46
2019-01-11T00:04:23.516Z,82.81
2019-01-11T00:06:52.337Z,82.58
2019-01-11T00:09:21.928Z,82.62
2019-01-11T00:11:50.785Z,82.74
2019-01-11T00:14:19.713Z,82.81
2019-01-11T00:16:48.672Z,82.64
2019-01-11T00:19:17.652Z,82.94
2019-01-11T00:21:46.508Z,82.96
2019-01-11T00:24:15.522Z,83.06
2019-01-11T00:26:44.737Z,83.12
2019-01-11T00:29:14.942Z,83.37
2019-01-11T00:31:45.989Z,83.16
2019-01-11T00:34:17.163Z,83.14
2019-01-11T00:36:46.626Z,83.29
2019-01-11T00:39:16.431Z,83.51
2019-01-11T00:41:45.404Z,83.39
2019-01-11T00:44:14.525Z,83.02
2019-01-11T00:46:43.435Z,82.94
2019-01-11T00:49:13.687Z,83.15
2019-01-11T00:51:47.124Z,83.14
2019-01-11T00:54:15.987Z,83.18
2019-01-11T00:56:44.929Z,82.96
2019-01-11T00:59:13.832Z,83.11
2019-01-11T01:01:42.829Z,83.12
2019-01-11T01:04:15.482Z,83.32
2019-01-11T01:06:45.771Z,83.28
2019-01-11T01:09:15.009Z,83.47
2019-01-11T01:11:43.883Z,83.33
2019-01-11T01:14:12.808Z,83.63
2019-01-11T01:16:43.563Z,83.72
2019-01-11T01:19:12.438Z,83.82
2019-01-11T01:21:41.360Z,84.06
2019-01-11T01:24:10.331Z,84.39
2019-01-11T01:26:39.252Z,84.29
2019-01-11T01:29:08.281Z,84.15
2019-01-11T01:31:37.248Z,84.09
2019-01-11T01:34:06.239Z,84.09
2019-01-11T01:36:35.134Z,83.80
2019-01-11T01:39:05.831Z,83.52
2019-01-11T01:41:34.741Z,83.75
2019-01-11T01:44:04.027Z,83.96
2019-01-11T01:46:32.968Z,84.13
2019-01-11T01:49:01.930Z,84.00
2019-01-11T01:51:30.827Z,84.16
2019-01-11T01:54:00.120Z,84.08
2019-01-11T02:00:11.826Z,84.18
2019-01-11T02:02:40.776Z,84.34
2019-01-11T02:05:10.194Z,84.04
2019-01-11T02:07:39.082Z,84.03
2019-01-11T02:10:09.811Z,84.05
2019-01-11T02:12:40.838Z,83.85
2019-01-11T02:15:11.506Z,83.96
2019-01-11T02:17:41.057Z,83.84
2019-01-11T02:20:13.345Z,84.00
2019-01-11T02:22:42.692Z,83.84
2019-01-11T02:25:13.185Z,84.03
2019-01-11T02:27:42.711Z,84.24
2019-01-11T02:30:22.581Z,84.16
2019-01-11T02:32:52.833Z,83.86
2019-01-11T02:35:22.305Z,84.22
2019-01-11T02:37:51.309Z,84.32
2019-01-11T02:40:20.194Z,84.34
2019-01-11T02:43:36.681Z,84.54
2019-01-11T02:46:05.617Z,84.62
2019-01-11T02:48:34.506Z,84.01
2019-01-11T02:51:03.439Z,84.05
2019-01-11T02:53:32.342Z,83.95
2019-01-11T02:56:01.265Z,84.13
2019-01-11T02:58:30.160Z,84.01
2019-01-11T03:00:59.103Z,84.20
2019-01-11T03:03:30.134Z,84.18
2019-01-11T03:05:59.986Z,84.31
2019-01-11T03:08:28.917Z,84.71
2019-01-11T03:10:58.752Z,84.52
2019-01-11T03:13:29.594Z,84.79
2019-01-11T03:15:58.482Z,84.98
2019-01-11T03:18:27.403Z,84.70
2019-01-11T03:20:56.312Z,84.73
2019-01-11T03:23:26.252Z,84.77
2019-01-11T03:25:55.660Z,84.52
2019-01-11T03:28:24.586Z,84.81
2019-01-11T03:30:53.552Z,84.77
2019-01-11T03:33:22.559Z,85.06
2019-01-11T03:35:51.467Z,85.34
2019-01-11T03:38:20.357Z,85.49
2019-01-11T03:40:49.254Z,85.29
2019-01-11T03:43:18.204Z,85.04
2019-01-11T03:45:47.199Z,85.39
2019-01-11T03:48:16.093Z,85.52
2019-01-11T03:50:45.062Z,85.42
2019-01-11T03:53:14.208Z,85.30
2019-01-11T03:55:47.301Z,85.57
2019-01-11T03:58:16.217Z,85.50
2019-01-11T04:00:45.180Z,85.57
2019-01-11T04:03:14.090Z,85.60
2019-01-11T04:05:43.027Z,85.85
2019-01-11T04:08:11.933Z,85.82
2019-01-11T04:10:40.868Z,85.94
2019-01-11T04:13:09.834Z,86.13
2019-01-11T04:15:38.810Z,85.91
2019-01-11T04:18:38.969Z,85.97
2019-01-11T04:21:07.935Z,86.20
2019-01-11T04:23:41.673Z,86.22
2019-01-11T04:26:10.614Z,86.30
2019-01-11T04:28:41.760Z,86.55
2019-01-11T04:31:10.652Z,86.73
2019-01-11T04:33:39.451Z,86.75
2019-01-11T04:36:10.479Z,86.58
2019-01-11T04:38:39.411Z,86.88
2019-01-11T04:41:09.343Z,86.99
2019-01-11T04:43:38.233Z,86.67
2019-01-11T04:46:07.591Z,86.80
2019-01-11T04:48:36.526Z,86.93
2019-01-11T04:51:05.468Z,87.06
2019-01-11T04:53:34.374Z,86.89
2019-01-11T04:56:06.418Z,86.87
2019-01-11T04:58:37.594Z,86.99
2019-01-11T05:01:09.905Z,87.02
2019-01-11T05:03:38.890Z,87.09
2019-01-11T05:06:07.714Z,87.24
2019-01-11T05:08:57.499Z,87.17
2019-01-11T05:11:26.488Z,87.02
2019-01-11T05:13:57.383Z,87.16
2019-01-11T05:16:26.395Z,87.22
2019-01-11T05:18:55.287Z,87.21
2019-01-11T05:21:24.206Z,87.32
2019-01-11T05:23:53.210Z,87.24
2019-01-11T05:26:22.109Z,87.23
2019-01-11T05:28:51.140Z,87.33
2019-01-11T05:31:20.059Z,87.34
2019-01-11T05:33:48.939Z,87.41
2019-01-11T05:36:17.831Z,87.43
2019-01-11T05:38:46.721Z,87.41
2019-01-11T05:41:17.334Z,87.58
2019-01-11T05:43:46.271Z,87.54
2019-01-11T05:46:15.265Z,87.48
2019-01-11T05:48:45.703Z,87.74
2019-01-11T05:51:14.889Z,87.88
2019-01-11T05:53:43.876Z,87.74
2019-01-11T05:56:18.204Z,87.69
2019-01-11T05:58:53.774Z,87.78
2019-01-11T06:01:26.707Z,87.74
2019-01-11T06:03:58.171Z,87.78
2019-01-11T06:06:29.815Z,87.96
2019-01-11T06:08:58.744Z,87.58
2019-01-11T06:11:27.755Z,87.41
2019-01-11T06:13:56.611Z,87.44
2019-01-11T06:16:25.863Z,87.49
2019-01-11T06:18:55.169Z,87.39
2019-01-11T06:21:24.243Z,87.56
2019-01-11T06:23:53.143Z,87.44
2019-01-11T06:26:22.177Z,87.47
2019-01-11T06:28:51.312Z,87.59
2019-01-11T06:31:22.509Z,87.56
2019-01-11T06:33:51.997Z,87.57
2019-01-11T06:36:21.003Z,87.73
2019-01-11T06:38:51.196Z,87.67
2019-01-11T06:41:23.276Z,87.73
2019-01-11T06:43:52.227Z,87.53
2019-01-11T06:46:23.971Z,87.61
2019-01-11T06:48:58.370Z,87.70
2019-01-11T06:51:27.284Z,87.57
2019-01-11T06:53:56.275Z,87.44
2019-01-11T06:56:25.472Z,87.39
2019-01-11T06:58:57.822Z,87.40
2019-01-11T07:01:26.838Z,87.47
2019-01-11T07:03:55.707Z,87.34
2019-01-11T07:06:24.669Z,87.31
2019-01-11T07:08:53.625Z,87.43
2019-01-11T07:11:22.596Z,87.28
2019-01-11T07:13:51.481Z,87.53
2019-01-11T07:16:20.400Z,87.60
2019-01-11T07:18:49.438Z,87.50
2019-01-11T07:21:18.741Z,87.63
2019-01-11T07:23:47.721Z,87.73
2019-01-11T07:26:16.655Z,87.58
2019-01-11T07:28:45.689Z,87.41
2019-01-11T07:31:15.987Z,87.60
2019-01-11T07:33:45.083Z,87.58
2019-01-11T07:36:31.612Z,87.69
2019-01-11T07:39:00.632Z,87.81
2019-01-11T07:41:29.665Z,88.01
2019-01-11T07:43:58.655Z,88.07
2019-01-11T07:46:27.542Z,88.07
2019-01-11T07:48:56.508Z,88.07
2019-01-11T07:51:25.434Z,87.94
2019-01-11T07:53:54.417Z,87.90
2019-01-11T07:56:23.323Z,87.87
2019-01-11T07:58:52.356Z,87.88
2019-01-11T08:01:21.247Z,87.85
2019-01-11T08:03:50.152Z,88.05
2019-01-11T08:06:18.997Z,88.05
2019-01-11T08:08:48.001Z,88.22
2019-01-11T08:11:16.963Z,88.25
2019-01-11T08:13:45.950Z,88.20
2019-01-11T08:16:15.128Z,88.25
2019-01-11T08:18:45.706Z,88.28
2019-01-11T08:21:14.896Z,88.19
2019-01-11T08:23:47.042Z,88.12
2019-01-11T08:26:16.014Z,88.18
2019-01-11T08:28:47.300Z,88.29
2019-01-11T08:31:16.269Z,88.27
2019-01-11T08:33:45.263Z,88.24
2019-01-11T08:36:14.180Z,88.30
2019-01-11T08:38:43.113Z,88.23
2019-01-11T08:41:12.105Z,88.16
2019-01-11T08:43:41.119Z,88.23
2019-01-11T08:46:10.099Z,88.20
2019-01-11T08:48:39.046Z,88.31
2019-01-11T08:51:07.942Z,88.34
2019-01-11T08:53:36.979Z,88.42
2019-01-11T08:56:08.473Z,88.45
2019-01-11T09:02:20.108Z,88.52
2019-01-11T09:08:17.009Z,88.34
2019-01-11T09:10:46.008Z,88.19
2019-01-11T09:13:14.891Z,88.21
2019-01-11T09:15:44.781Z,88.17
2019-01-11T09:18:14.658Z,88.17
2019-01-11T09:20:43.948Z,88.22
2019-01-11T09:23:14.265Z,88.12
2019-01-11T09:25:45.855Z,88.09
2019-01-11T09:28:14.854Z,88.03
2019-01-11T09:30:43.582Z,88.25
2019-01-11T09:33:12.499Z,88.15
2019-01-11T09:35:41.433Z,87.78
2019-01-11T09:38:10.486Z,87.61
2019-01-11T09:40:39.447Z,87.68
2019-01-11T09:43:08.320Z,87.70
2019-01-11T09:45:37.275Z,87.64
2019-01-11T09:48:06.365Z,87.57
2019-01-11T09:50:35.353Z,87.54
2019-01-11T09:53:04.344Z,87.62
2019-01-11T09:55:33.289Z,87.53
2019-01-11T09:58:02.260Z,87.44
2019-01-11T10:00:32.564Z,87.32
2019-01-11T10:03:09.448Z,87.48
2019-01-11T10:05:42.749Z,87.56
2019-01-11T10:08:11.678Z,87.48
2019-01-11T10:10:41.885Z,87.31
2019-01-11T10:13:10.867Z,87.38
2019-01-11T10:15:39.775Z,87.22
2019-01-11T10:18:09.339Z,87.11
2019-01-11T10:20:38.670Z,87.09
2019-01-11T10:23:07.744Z,86.87
2019-01-11T10:25:37.651Z,86.79
2019-01-11T10:28:06.624Z,86.88
2019-01-11T10:30:35.517Z,86.75
2019-01-11T10:33:04.558Z,86.36
2019-01-11T10:35:33.538Z,86.60
2019-01-11T10:38:02.439Z,86.61
2019-01-11T10:40:31.472Z,86.69
2019-01-11T10:43:00.711Z,86.31
2019-01-11T10:45:32.200Z,86.19
2019-01-11T10:48:02.886Z,85.89
2019-01-11T10:50:31.795Z,85.72
2019-01-11T10:53:00.691Z,85.54
2019-01-11T10:55:29.636Z,85.37
2019-01-11T10:57:58.937Z,85.46
2019-01-11T11:00:29.674Z,85.35
2019-01-11T11:02:58.914Z,85.21
2019-01-11T11:05:27.853Z,85.28
2019-01-11T11:07:56.786Z,85.24
2019-01-11T11:10:25.764Z,85.24
2019-01-11T11:12:54.644Z,85.03
2019-01-11T11:15:25.149Z,84.67
2019-01-11T11:17:54.053Z,84.21
2019-01-11T11:20:22.962Z,84.09
2019-01-11T11:22:52.742Z,84.38
2019-01-11T11:25:22.538Z,83.87
2019-01-11T11:27:51.613Z,83.70
2019-01-11T11:30:21.453Z,83.72
2019-01-11T11:33:00.214Z,83.88
2019-01-11T11:35:30.110Z,83.75
2019-01-11T11:37:59.384Z,83.77
2019-01-11T11:40:29.620Z,83.91
2019-01-11T11:42:59.985Z,83.67
2019-01-11T11:45:28.898Z,83.89
2019-01-11T11:47:59.030Z,84.01
2019-01-11T11:50:28.051Z,84.17
2019-01-11T11:52:57.030Z,84.16
2019-01-11T11:55:25.860Z,83.89
2019-01-11T11:57:54.722Z,83.87
2019-01-11T12:00:27.880Z,84.09
2019-01-11T12:02:56.921Z,84.42
2019-01-11T12:05:25.934Z,84.13
2019-01-11T12:07:54.919Z,84.28
2019-01-11T12:10:23.960Z,83.93
2019-01-11T12:12:52.932Z,83.40
2019-01-11T12:15:21.912Z,83.42
2019-01-11T12:17:50.894Z,83.82
2019-01-11T12:20:39.238Z,83.87
2019-01-11T12:23:08.424Z,83.81
2019-01-11T12:25:37.406Z,83.85
2019-01-11T12:28:06.412Z,83.91
2019-01-11T12:30:35.297Z,83.63
2019-01-11T12:33:04.232Z,83.72
2019-01-11T12:35:33.254Z,83.46
2019-01-11T12:38:02.136Z,83.06
2019-01-11T12:40:31.140Z,83.13
2019-01-11T12:43:00.138Z,83.26
2019-01-11T12:45:29.128Z,83.17
2019-01-11T12:47:58.107Z,83.24
2019-01-11T12:50:27.765Z,83.49
2019-01-11T12:52:56.668Z,83.57
2019-01-11T12:55:25.711Z,83.38
2019-01-11T12:57:54.641Z,83.65
2019-01-11T13:00:23.998Z,82.92
2019-01-11T13:02:52.983Z,82.21
2019-01-11T13:05:22.137Z,81.85
2019-01-11T13:07:51.120Z,81.13
2019-01-11T13:10:20.843Z,81.40
2019-01-11T13:12:49.909Z,81.39
2019-01-11T13:15:20.698Z,81.47
2019-01-11T13:17:49.868Z,81.10
2019-01-11T13:20:20.122Z,80.40
2019-01-11T13:22:51.141Z,80.55
2019-01-11T13:25:20.196Z,80.49
2019-01-11T13:27:49.095Z,80.06
2019-01-11T13:30:18.461Z,79.87
2019-01-11T13:32:49.516Z,80.10
2019-01-11T13:35:18.865Z,78.88
2019-01-11T13:37:47.820Z,78.54
2019-01-11T13:40:19.483Z,79.02
2019-01-11T13:42:48.621Z,78.71
2019-01-11T13:45:18.076Z,79.00
2019-01-11T13:47:47.090Z,78.96
2019-01-11T13:50:29.381Z,78.85
2019-01-11T13:52:58.353Z,78.94
2019-01-11T13:55:27.462Z,79.30
2019-01-11T13:57:56.617Z,78.86
2019-01-11T14:00:25.571Z,79.19
2019-01-11T14:02:54.683Z,78.54
2019-01-11T14:05:23.646Z,78.80
2019-01-11T14:07:52.754Z,78.47
2019-01-11T14:10:21.748Z,78.72
2019-01-11T14:12:50.652Z,78.49
2019-01-11T14:15:19.586Z,78.92
2019-01-11T14:17:48.528Z,79.25
2019-01-11T14:20:17.497Z,79.52
2019-01-11T14:22:46.384Z,79.52
2019-01-11T14:25:15.364Z,78.32
2019-01-11T14:27:44.370Z,78.28
2019-01-11T14:30:13.922Z,78.38
2019-01-11T14:32:43.300Z,78.14
2019-01-11T14:35:12.127Z,77.57
2019-01-11T14:37:41.063Z,77.54
2019-01-11T14:40:12.201Z,77.19
2019-01-11T14:42:41.235Z,76.08
2019-01-11T14:45:13.427Z,76.45
2019-01-11T14:47:43.643Z,76.61
2019-01-11T14:50:14.816Z,75.86
2019-01-11T14:52:43.823Z,75.19
2019-01-11T14:55:14.118Z,75.26
2019-01-11T14:58:48.593Z,75.61
2019-01-11T15:01:17.639Z,75.81
2019-01-11T15:04:07.134Z,76.15
2019-01-11T15:06:36.059Z,75.92
2019-01-11T15:09:08.154Z,76.00
2019-01-11T15:11:37.084Z,75.78
2019-01-11T15:14:07.712Z,75.59
2019-01-11T15:16:36.717Z,75.37
2019-01-11T15:19:13.864Z,74.97
2019-01-11T15:21:38.654Z,75.60
2019-01-11T15:24:07.637Z,75.91
2019-01-11T15:26:36.517Z,75.35
2019-01-11T15:29:05.461Z,76.03
2019-01-11T15:31:34.584Z,75.05
2019-01-11T15:34:03.571Z,74.72
2019-01-11T15:36:32.623Z,75.44
2019-01-11T15:39:01.719Z,75.84
2019-01-11T15:42:15.690Z,75.53
2019-01-11T15:44:44.601Z,75.87
2019-01-11T15:47:13.499Z,75.73
2019-01-11T15:49:42.476Z,75.79
2019-01-11T15:52:11.379Z,76.22
2019-01-11T15:54:40.295Z,75.26
2019-01-11T15:57:09.213Z,75.38
2019-01-11T16:00:00.266Z,75.35
2019-01-11T16:02:29.202Z,75.12
2019-01-11T16:05:00.267Z,75.06
2019-01-11T16:07:29.972Z,75.12
2019-01-11T16:10:03.137Z,75.08
2019-01-11T16:12:47.072Z,74.68
2019-01-11T16:15:49.453Z,75.18
2019-01-11T16:18:22.243Z,74.78
2019-01-11T16:20:51.239Z,75.47
2019-01-11T16:23:20.229Z,75.20
2019-01-11T16:25:49.122Z,75.25
2019-01-11T16:28:18.071Z,75.11
2019-01-11T16:30:46.997Z,74.72
2019-01-11T16:33:16.004Z,75.32
2019-01-11T16:35:45.003Z,74.97
2019-01-11T16:38:13.940Z,74.79
2019-01-11T16:40:42.838Z,74.65
2019-01-11T16:43:11.776Z,75.17
2019-01-11T16:45:40.776Z,75.33
2019-01-11T16:48:09.713Z,74.74
2019-01-11T16:50:38.635Z,74.64
2019-01-11T16:53:11.746Z,74.22
2019-01-11T16:55:40.445Z,74.31
2019-01-11T16:58:09.344Z,74.29
2019-01-11T17:00:38.206Z,74.31
2019-01-11T17:03:07.214Z,74.42
2019-01-11T17:05:36.127Z,74.14
2019-01-11T17:08:05.163Z,74.18
2019-01-11T17:10:34.092Z,73.67
2019-01-11T17:13:03.161Z,73.22
2019-01-11T17:15:32.159Z,74.08
2019-01-11T17:18:01.107Z,73.57
2019-01-11T17:20:30.097Z,75.54
2019-01-11T17:22:59.024Z,73.30
2019-01-11T17:25:27.927Z,73.52
2019-01-11T17:27:56.840Z,73.27
2019-01-11T17:30:25.827Z,74.44
2019-01-11T17:32:54.688Z,74.75
2019-01-11T17:35:23.546Z,73.21
2019-01-11T17:37:52.442Z,73.06
2019-01-11T17:40:21.392Z,73.33
2019-01-11T17:42:50.367Z,73.56
2019-01-11T17:45:19.337Z,73.17
2019-01-11T17:47:48.354Z,73.14
2019-01-11T17:50:18.372Z,73.09
2019-01-11T17:52:47.356Z,73.09
2019-01-11T17:55:16.319Z,72.94
2019-01-11T17:57:45.300Z,72.60
2019-01-11T18:03:41.868Z,72.47
2019-01-11T18:06:10.986Z,72.23
2019-01-11T18:08:41.264Z,72.50
2019-01-11T18:11:10.354Z,71.98
2019-01-11T18:13:39.448Z,72.02
2019-01-11T18:16:08.381Z,71.40
2019-01-11T18:18:37.359Z,71.48
2019-01-11T18:21:53.968Z,71.46
2019-01-11T18:24:22.891Z,71.49
2019-01-11T18:26:51.922Z,71.17
2019-01-11T18:29:20.850Z,70.91
2019-01-11T18:31:49.774Z,70.71
2019-01-11T18:34:18.787Z,70.78
2019-01-11T18:36:47.704Z,70.50
2019-01-11T18:39:16.640Z,70.65
2019-01-11T18:41:45.638Z,70.94
2019-01-11T18:44:41.152Z,70.40
2019-01-11T18:47:10.120Z,70.43
2019-01-11T18:49:39.168Z,70.64
2019-01-11T18:52:08.151Z,70.62
2019-01-11T18:55:01.203Z,70.68
2019-01-11T18:57:30.219Z,70.79
2019-01-11T18:59:59.196Z,70.74
2019-01-11T19:02:28.118Z,70.94
2019-01-11T19:04:57.199Z,71.10
2019-01-11T19:07:26.312Z,70.84
2019-01-11T19:09:55.559Z,70.65
2019-01-11T19:12:33.297Z,70.29
2019-01-11T19:15:02.242Z,70.40
2019-01-11T19:17:31.272Z,70.56
2019-01-11T19:20:00.279Z,70.60
2019-01-11T19:22:29.165Z,70.38
2019-01-11T19:24:58.210Z,70.59
2019-01-11T19:27:27.525Z,70.77
2019-01-11T19:29:56.725Z,70.80
2019-01-11T19:32:25.816Z,71.94
2019-01-11T19:34:54.900Z,71.41
2019-01-11T19:37:23.916Z,71.61
2019-01-11T19:39:52.985Z,71.79
2019-01-11T19:42:22.002Z,71.05
2019-01-11T19:44:50.947Z,71.88
2019-01-11T19:47:19.901Z,71.46
2019-01-11T19:49:48.807Z,70.99
2019-01-11T19:52:17.789Z,71.69
2019-01-11T19:54:46.751Z,72.19
2019-01-11T19:57:16.550Z,71.70
2019-01-11T19:59:45.545Z,71.84
2019-01-11T20:02:14.580Z,71.76
2019-01-11T20:04:43.623Z,71.64
2019-01-11T20:07:12.769Z,71.25
2019-01-11T20:09:41.952Z,71.88
2019-01-11T20:12:10.929Z,71.81
2019-01-11T20:14:40.229Z,71.69
2019-01-11T20:17:14.097Z,72.06
2019-01-11T20:19:40.422Z,71.29
2019-01-11T20:22:09.571Z,71.62
2019-01-11T20:24:39.089Z,71.15
2019-01-11T20:27:08.168Z,71.54
2019-01-11T20:29:37.122Z,72.02
2019-01-11T20:32:06.098Z,71.72
2019-01-11T20:34:35.078Z,71.68
2019-01-11T20:37:14.149Z,71.22
2019-01-11T20:39:43.224Z,71.32
2019-01-11T20:42:12.287Z,71.20
2019-01-11T20:44:41.436Z,70.80
2019-01-11T20:47:10.551Z,70.56
2019-01-11T20:49:39.600Z,70.88
2019-01-11T20:52:08.595Z,70.12
2019-01-11T20:54:37.638Z,70.43
2019-01-11T20:57:06.586Z,71.43
2019-01-11T20:59:35.518Z,70.49
2019-01-11T21:02:04.664Z,70.18
2019-01-11T21:04:33.753Z,70.33
2019-01-11T21:07:02.837Z,69.96
2019-01-11T21:09:31.847Z,70.16
2019-01-11T21:12:00.970Z,70.18
2019-01-11T21:14:30.046Z,70.00
2019-01-11T21:16:59.043Z,70.36
2019-01-11T21:19:28.028Z,70.42
2019-01-11T21:21:57.086Z,70.11
2019-01-11T21:24:26.079Z,70.31
2019-01-11T21:26:55.159Z,70.46
2019-01-11T21:29:24.084Z,70.58
2019-01-11T21:31:53.211Z,70.58
2019-01-11T21:34:22.246Z,70.67
2019-01-11T21:36:51.261Z,70.70
2019-01-11T21:39:20.220Z,70.50
2019-01-11T21:41:49.175Z,70.41
2019-01-11T21:44:19.541Z,70.52
2019-01-11T21:46:48.601Z,70.14
2019-01-11T21:49:17.581Z,70.29
2019-01-11T21:51:46.668Z,70.52
2019-01-11T21:54:15.589Z,70.53
2019-01-11T21:56:44.628Z,70.40
2019-01-11T21:59:13.662Z,69.92
2019-01-11T22:01:42.630Z,69.71
2019-01-11T22:04:11.586Z,69.67
2019-01-11T22:06:40.541Z,69.56
2019-01-11T22:09:09.793Z,69.56
2019-01-11T22:11:38.687Z,69.80
2019-01-11T22:14:07.683Z,69.79
2019-01-11T22:16:36.900Z,70.11
2019-01-11T22:19:05.910Z,69.73
2019-01-11T22:21:34.871Z,69.68
2019-01-11T22:24:04.087Z,69.68
2019-01-11T22:26:33.073Z,69.41
2019-01-11T22:29:02.031Z,69.32
2019-01-11T22:31:30.916Z,69.76
2019-01-11T22:34:03.418Z,69.66
2019-01-11T22:36:32.587Z,69.64
2019-01-11T22:39:02.131Z,69.92
2019-01-11T22:41:32.060Z,69.92
2019-01-11T22:44:01.269Z,70.08
2019-01-11T22:46:30.180Z,69.99
2019-01-11T22:48:59.680Z,70.09
2019-01-11T22:51:28.941Z,70.24
2019-01-11T22:53:58.970Z,70.22
2019-01-11T22:56:29.096Z,69.93
2019-01-11T22:58:59.874Z,69.70
2019-01-11T23:01:48.505Z,69.40
2019-01-11T23:04:17.492Z,68.85
2019-01-11T23:07:22.896Z,68.65
2019-01-11T23:10:01.897Z,68.79
2019-01-11T23:12:44.057Z,68.57
2019-01-11T23:15:17.690Z,68.38
2019-01-11T23:17:59.146Z,68.52
2019-01-11T23:20:28.059Z,68.40
2019-01-11T23:22:57.061Z,67.89
2019-01-11T23:25:26.043Z,68.15
2019-01-11T23:27:54.983Z,67.87
2019-01-11T23:30:23.954Z,67.50
2019-01-11T23:32:52.870Z,67.84
2019-01-11T23:35:21.811Z,67.95
2019-01-11T23:37:52.108Z,67.92
2019-01-11T23:40:21.067Z,67.50
2019-01-11T23:42:50.018Z,67.19
2019-01-11T23:45:21.513Z,67.15
2019-01-11T23:47:50.737Z,67.36
2019-01-11T23:50:20.011Z,67.40
2019-01-11T23:52:50.508Z,67.73
2019-01-11T23:55:23.719Z,67.35
2019-01-11T23:57:57.426Z,67.37
